Portada
METAR-TAF:

METAR-TAF

Aeroports :

Mandalay, Myanmar

latitud: 21-59N, longitud: 096-06E, altitud: 74 m

Observació

L'informe es va fer fa 32 minuts, a les 11:30 UTC
Vent 7 kt del Sud amb ràfegues de 15 kt
Temperatura 38°C
Humitat 40%
Pressió 1002 hPa
Visibilitat: 7000 m
Núvols disperses a una alçada de 2000 ft

METAR: VYMD 251130Z 18007G15KT 7000 SCT020 38/22 Q1002 NOSIG

Hora: 18:32 (12:02 UTC)

Pronòstic

L'informe es va fer fa 1 hora i 2 minuts, a les 11:00 UTC
Pronòstic vàlid del 25 a les 12 UTC al 26 a les 12 UTC
Vent 8 kt del Sud
Visibilitat: 7000 m
Núvols disperses a una alçada de 2000 ft
Núvols disperses a una alçada de 12000 ft
Temporalment
l' 25 a les 12 UTC al 25 a les 18 UTC
Vent 7 kt del Sud amb ràfegues de 18 kt
Visibilitat: 6000 m
Cel ennuvolat a una alçada de 1500 ft
Escasses núvols a una alçada de 2000 ft, Cumulonimbus.
Cel ennuvolat a una alçada de 10000 ft

TAF: VYMD 251100Z 2512/2612 17008KT 7000 SCT020 SCT120 TEMPO 2512/2518 18007G18KT 6000 BKN015 FEW020CB BKN100

Observacions i pronòstics meteorològics de més de 4000 aeroports (METAR i TAF).

Les estacions disponibles són els punts grocs i vermells al mapa.

Posi el ratolí al punt desitjat per veure el nom de l'estació.

Feu clic per veure les observacions i els pronòstics meteorològics.

Per canviar el mapa: feu clic els botons verds amb una creu de color negre per apropar; al botó verd amb un guió per allunyar la imatge; o en les fletxes verdes per a mapes adjacents.


METAR-TAF: